createdAt,value
2019-03-03T00:01:22.946Z,100123.84
2019-03-03T00:03:53.506Z,100125.14
2019-03-03T00:06:22.943Z,100124.24
2019-03-03T00:08:52.473Z,100120.28
2019-03-03T00:11:21.929Z,100124.66
2019-03-03T00:13:51.511Z,100126.88
2019-03-03T00:16:21.340Z,100122.03
2019-03-03T00:18:51.615Z,100124.25
2019-03-03T00:21:21.176Z,100120.76
2019-03-03T00:23:50.608Z,100117.23
2019-03-03T00:26:20.069Z,100112.86
2019-03-03T00:28:49.637Z,100112.44
2019-03-03T00:31:22.253Z,100107.58
2019-03-03T00:33:51.730Z,100105.41
2019-03-03T00:36:21.378Z,100115.97
2019-03-03T00:38:55.138Z,100105.41
2019-03-03T00:41:32.687Z,100109.85
2019-03-03T00:44:21.834Z,100104.09
2019-03-03T00:46:52.960Z,100108.05
2019-03-03T00:49:24.210Z,100109.80
2019-03-03T00:51:55.490Z,100110.22
2019-03-03T00:54:29.608Z,100102.70
2019-03-03T00:57:00.721Z,100112.80
2019-03-03T00:59:34.534Z,100109.23
2019-03-03T01:02:06.173Z,100112.30
2019-03-03T01:04:37.244Z,100111.94
2019-03-03T01:07:23.313Z,100111.06
2019-03-03T01:10:09.467Z,100099.64
2019-03-03T01:12:43.389Z,100100.06
2019-03-03T01:15:14.900Z,100111.13
2019-03-03T01:17:48.796Z,100103.25
2019-03-03T01:20:19.873Z,100109.05
2019-03-03T01:23:07.114Z,100106.89
2019-03-03T01:25:36.547Z,100101.14
2019-03-03T01:28:06.167Z,100102.09
2019-03-03T01:30:35.639Z,100108.70
2019-03-03T01:33:05.180Z,100106.54
2019-03-03T01:35:34.653Z,100110.09
2019-03-03T01:38:04.403Z,100118.08
2019-03-03T01:40:34.406Z,100118.08
2019-03-03T01:43:04.404Z,100109.30
2019-03-03T01:45:33.893Z,100122.52
2019-03-03T01:48:04.511Z,100109.73
2019-03-03T01:50:33.993Z,100108.39
2019-03-03T01:53:04.403Z,100109.29
2019-03-03T01:55:33.993Z,100086.81
2019-03-03T01:58:04.394Z,100079.27
2019-03-03T02:00:34.084Z,100070.91
2019-03-03T02:03:04.611Z,100081.95
2019-03-03T02:05:34.082Z,100080.63
2019-03-03T02:08:04.458Z,100067.84
2019-03-03T02:10:34.001Z,100069.21
2019-03-03T02:13:04.647Z,100057.73
2019-03-03T02:15:34.166Z,100063.06
2019-03-03T02:18:04.453Z,100064.86
2019-03-03T02:20:33.906Z,100061.32
2019-03-03T02:23:04.347Z,100060.03
2019-03-03T02:25:33.950Z,100063.58
2019-03-03T02:28:04.465Z,100045.06
2019-03-03T02:30:34.373Z,100045.06
2019-03-03T02:33:04.383Z,100049.05
2019-03-03T02:35:34.026Z,100035.40
2019-03-03T02:38:04.393Z,100034.50
2019-03-03T02:40:33.951Z,100030.56
2019-03-03T02:43:04.433Z,100023.48
2019-03-03T02:45:34.893Z,100016.44
2019-03-03T02:48:04.326Z,100009.37
2019-03-03T02:50:33.846Z,99995.28
2019-03-03T02:53:04.393Z,99987.77
2019-03-03T02:55:33.856Z,99988.21
2019-03-03T02:58:04.323Z,99980.24
2019-03-03T03:00:35.431Z,99978.47
2019-03-03T03:03:14.839Z,99972.28
2019-03-03T03:06:02.311Z,99969.64
2019-03-03T03:08:33.386Z,99957.28
2019-03-03T03:11:20.598Z,99951.99
2019-03-03T03:14:09.942Z,99959.50
2019-03-03T03:16:41.051Z,99954.20
2019-03-03T03:19:12.121Z,99941.84
2019-03-03T03:21:45.894Z,99934.38
2019-03-03T03:24:19.873Z,99946.67
2019-03-03T03:26:56.699Z,99937.42
2019-03-03T03:29:33.814Z,99936.98
2019-03-03T03:32:04.922Z,99923.31
2019-03-03T03:34:39.958Z,99926.42
2019-03-03T03:37:20.226Z,99923.74
2019-03-03T03:39:53.959Z,99915.84
2019-03-03T03:42:27.871Z,99908.77
2019-03-03T03:45:05.244Z,99902.16
2019-03-03T03:47:42.139Z,99907.88
2019-03-03T03:50:13.350Z,99903.45
2019-03-03T03:53:02.635Z,99898.17
2019-03-03T03:55:40.012Z,99899.92
2019-03-03T03:58:16.935Z,99899.50
2019-03-03T04:00:54.097Z,99911.39
2019-03-03T04:03:25.213Z,99888.05
2019-03-03T04:05:56.658Z,99892.45
2019-03-03T04:08:27.768Z,99885.41
2019-03-03T04:11:01.545Z,99884.08
2019-03-03T04:13:38.762Z,99872.64
2019-03-03T04:16:12.532Z,99874.41
2019-03-03T04:18:43.726Z,99870.89
2019-03-03T04:21:20.499Z,99870.43
2019-03-03T04:23:57.392Z,99858.54
2019-03-03T04:26:31.177Z,99862.94
2019-03-03T04:29:11.095Z,99848.37
2019-03-03T04:31:42.215Z,99850.13
2019-03-03T04:34:13.308Z,99836.03
2019-03-03T04:36:53.516Z,99840.89
2019-03-03T04:39:24.625Z,99842.21
2019-03-03T04:42:01.141Z,99846.17
2019-03-03T04:44:50.294Z,99843.98
2019-03-03T04:47:27.172Z,99847.94
2019-03-03T04:50:11.047Z,99851.91
2019-03-03T04:52:44.943Z,99858.55
2019-03-03T04:55:31.997Z,99848.85
2019-03-03T04:58:03.068Z,99852.38
2019-03-03T05:00:34.188Z,99842.23
2019-03-03T05:03:09.218Z,99840.05
2019-03-03T05:05:43.025Z,99828.16
2019-03-03T05:08:16.885Z,99836.94
2019-03-03T05:11:02.925Z,99825.93
2019-03-03T05:13:36.955Z,99835.61
2019-03-03T05:16:13.929Z,99831.21
2019-03-03T05:18:46.161Z,99833.00
2019-03-03T05:21:15.583Z,99831.25
2019-03-03T05:23:45.071Z,99833.89
2019-03-03T05:26:14.492Z,99822.41
2019-03-03T05:28:43.923Z,99828.56
2019-03-03T05:31:13.421Z,99820.20
2019-03-03T05:33:42.949Z,99818.00
2019-03-03T05:36:12.387Z,99819.32
2019-03-03T05:38:42.676Z,99813.59
2019-03-03T05:41:12.384Z,99807.44
2019-03-03T05:43:41.869Z,99807.00
2019-03-03T05:46:12.401Z,99810.09
2019-03-03T05:48:41.866Z,99814.92
2019-03-03T05:51:11.289Z,99803.89
2019-03-03T05:53:40.759Z,99803.89
2019-03-03T05:56:10.237Z,99799.92
2019-03-03T05:58:39.657Z,99797.28
2019-03-03T06:01:09.116Z,99795.09
2019-03-03T06:03:39.587Z,99798.17
2019-03-03T06:06:09.071Z,99793.76
2019-03-03T06:08:38.527Z,99795.08
2019-03-03T06:11:07.967Z,99796.40
2019-03-03T06:13:37.403Z,99788.02
2019-03-03T06:16:06.973Z,99799.48
2019-03-03T06:18:36.512Z,99789.37
2019-03-03T06:21:05.991Z,99789.79
2019-03-03T06:23:35.448Z,99790.67
2019-03-03T06:26:04.911Z,99789.81
2019-03-03T06:28:34.379Z,99790.69
2019-03-03T06:31:04.430Z,99778.79
2019-03-03T06:33:33.890Z,99784.96
2019-03-03T06:36:04.404Z,99782.30
2019-03-03T06:38:33.834Z,99790.69
2019-03-03T06:41:04.429Z,99780.11
2019-03-03T06:43:33.855Z,99783.18
2019-03-03T06:46:04.347Z,99780.98
2019-03-03T06:48:33.771Z,99776.12
2019-03-03T06:51:03.251Z,99782.28
2019-03-03T06:53:32.709Z,99782.29
2019-03-03T06:56:02.171Z,99768.62
2019-03-03T06:58:31.629Z,99773.46
2019-03-03T07:01:01.078Z,99768.16
2019-03-03T07:03:31.615Z,99776.56
2019-03-03T07:06:01.075Z,99775.23
2019-03-03T07:08:30.499Z,99770.80
2019-03-03T07:10:59.923Z,99761.53
2019-03-03T07:13:29.392Z,99756.69
2019-03-03T07:15:58.856Z,99769.47
2019-03-03T07:18:28.290Z,99770.34
2019-03-03T07:20:57.753Z,99766.38
2019-03-03T07:23:27.203Z,99760.62
2019-03-03T07:25:56.636Z,99757.95
2019-03-03T07:28:26.078Z,99753.05
2019-03-03T07:30:55.731Z,99762.75
2019-03-03T07:33:26.784Z,99760.98
2019-03-03T07:35:56.443Z,99749.95
2019-03-03T07:38:25.895Z,99753.94
2019-03-03T07:40:55.454Z,99760.58
2019-03-03T07:43:24.908Z,99751.72
2019-03-03T07:45:54.465Z,99757.91
2019-03-03T07:48:23.926Z,99756.16
2019-03-03T07:50:53.350Z,99757.47
2019-03-03T07:53:22.797Z,99756.59
2019-03-03T07:55:52.227Z,99761.47
2019-03-03T07:58:21.690Z,99759.69
2019-03-03T08:00:51.799Z,99748.17
2019-03-03T08:03:21.271Z,99742.84
2019-03-03T08:05:50.811Z,99747.70
2019-03-03T08:08:20.299Z,99748.12
2019-03-03T08:10:49.761Z,99748.12
2019-03-03T08:13:20.355Z,99743.70
2019-03-03T08:15:49.832Z,99749.43
2019-03-03T08:18:19.256Z,99755.16
2019-03-03T08:20:48.723Z,99746.73
2019-03-03T08:23:18.145Z,99759.01
2019-03-03T08:25:47.632Z,99761.19
2019-03-03T08:28:17.124Z,99761.47
2019-03-03T08:30:46.585Z,99765.34
2019-03-03T08:33:16.153Z,99763.91
2019-03-03T08:35:45.604Z,99764.66
2019-03-03T08:38:15.096Z,99757.91
2019-03-03T08:40:44.650Z,99760.00
2019-03-03T08:43:18.685Z,99761.16
2019-03-03T08:45:52.618Z,99756.66
2019-03-03T08:48:26.431Z,99761.06
2019-03-03T08:50:57.573Z,99751.81
2019-03-03T08:53:37.866Z,99746.55
2019-03-03T08:56:09.006Z,99756.33
2019-03-03T08:58:46.038Z,99765.23
2019-03-03T09:01:33.287Z,99758.59
2019-03-03T09:04:07.322Z,99770.95
2019-03-03T09:06:44.145Z,99763.03
2019-03-03T09:09:16.162Z,99771.39
2019-03-03T09:12:01.492Z,99768.28
2019-03-03T09:14:47.982Z,99767.31
2019-03-03T09:17:19.102Z,99769.08
2019-03-03T09:19:56.112Z,99772.16
2019-03-03T09:22:36.125Z,99777.91
2019-03-03T09:25:15.190Z,99785.55
2019-03-03T09:28:01.475Z,99784.73
2019-03-03T09:30:32.697Z,99781.71
2019-03-03T09:33:18.877Z,99790.13
2019-03-03T09:36:06.296Z,99789.24
2019-03-03T09:38:40.460Z,99784.80
2019-03-03T09:41:11.607Z,99785.73
2019-03-03T09:43:42.706Z,99786.61
2019-03-03T09:46:22.666Z,99787.98
2019-03-03T09:48:56.728Z,99793.81
2019-03-03T09:51:27.851Z,99794.23
2019-03-03T09:53:58.915Z,99790.65
2019-03-03T09:56:39.522Z,99794.96
2019-03-03T09:59:27.611Z,99797.09
2019-03-03T10:01:58.768Z,99805.88
2019-03-03T10:04:48.335Z,99799.16
2019-03-03T10:07:28.465Z,99801.81
2019-03-03T10:10:15.988Z,99799.11
2019-03-03T10:12:52.918Z,99802.72
2019-03-03T10:15:24.008Z,99800.89
2019-03-03T10:17:55.267Z,99802.27
2019-03-03T10:20:26.415Z,99806.21
2019-03-03T10:23:09.672Z,99813.67
2019-03-03T10:25:40.770Z,99816.75
2019-03-03T10:28:13.090Z,99811.02
2019-03-03T10:30:44.181Z,99807.83
2019-03-03T10:33:17.763Z,99815.82
2019-03-03T10:35:51.945Z,99805.23
2019-03-03T10:38:25.902Z,99801.72
2019-03-03T10:41:03.007Z,99804.55
2019-03-03T10:43:52.490Z,99804.55
2019-03-03T10:46:35.103Z,99802.31
2019-03-03T10:49:12.152Z,99809.77
2019-03-03T10:51:44.319Z,99800.06
2019-03-03T10:54:33.465Z,99793.41
2019-03-03T10:57:07.577Z,99798.23
2019-03-03T10:59:54.937Z,99795.98
2019-03-03T11:02:38.813Z,99801.70
2019-03-03T11:05:27.905Z,99794.57
2019-03-03T11:08:10.763Z,99796.02
2019-03-03T11:10:44.799Z,99792.99
2019-03-03T11:13:16.068Z,99796.98
2019-03-03T11:15:56.095Z,99793.89
2019-03-03T11:18:32.835Z,99785.83
2019-03-03T11:21:12.874Z,99783.12
2019-03-03T11:23:44.029Z,99788.02
2019-03-03T11:26:15.336Z,99793.89
2019-03-03T11:28:49.726Z,99785.47
2019-03-03T11:31:20.874Z,99785.05
2019-03-03T11:33:57.907Z,99794.45
2019-03-03T11:36:34.833Z,99790.61
2019-03-03T11:39:23.900Z,99784.09
2019-03-03T11:42:11.191Z,99786.05
2019-03-03T11:44:48.315Z,99785.27
2019-03-03T11:47:31.491Z,99792.81
2019-03-03T11:50:14.921Z,99784.39
2019-03-03T11:52:45.971Z,99774.64
2019-03-03T11:55:17.104Z,99786.12
2019-03-03T11:57:48.261Z,99774.22
2019-03-03T12:00:32.156Z,99767.61
2019-03-03T12:03:06.170Z,99765.44
2019-03-03T12:05:37.343Z,99766.41
2019-03-03T12:08:18.661Z,99766.91
2019-03-03T12:11:05.885Z,99758.92
2019-03-03T12:13:36.984Z,99756.22
2019-03-03T12:16:09.285Z,99748.72
2019-03-03T12:18:40.843Z,99758.89
2019-03-03T12:21:14.735Z,99755.80
2019-03-03T12:23:45.804Z,99750.42
2019-03-03T12:26:22.877Z,99753.08
2019-03-03T12:29:11.909Z,99744.28
2019-03-03T12:31:45.496Z,99744.30
2019-03-03T12:34:28.718Z,99744.78
2019-03-03T12:37:05.885Z,99745.73
2019-03-03T12:39:42.846Z,99740.03
2019-03-03T12:42:14.585Z,99743.14
2019-03-03T12:44:46.054Z,99733.45
2019-03-03T12:47:29.128Z,99730.87
2019-03-03T12:50:16.839Z,99724.25
2019-03-03T12:53:03.973Z,99718.89
2019-03-03T12:55:51.189Z,99729.46
2019-03-03T12:58:37.966Z,99719.79
2019-03-03T13:01:12.157Z,99718.02
2019-03-03T13:03:52.751Z,99716.66
2019-03-03T13:06:30.471Z,99714.47
2019-03-03T13:09:01.818Z,99710.97
2019-03-03T13:11:37.316Z,99709.22
2019-03-03T13:14:11.569Z,99703.48
2019-03-03T13:16:59.558Z,99695.09
2019-03-03T13:19:42.914Z,99701.73
2019-03-03T13:22:30.064Z,99698.16
2019-03-03T13:25:03.867Z,99694.59
2019-03-03T13:27:51.555Z,99689.72
2019-03-03T13:30:22.762Z,99685.73
2019-03-03T13:33:08.868Z,99684.37
2019-03-03T13:35:56.243Z,99687.06
2019-03-03T13:38:27.297Z,99679.13
2019-03-03T13:40:58.416Z,99678.28
2019-03-03T13:43:27.992Z,99672.56
2019-03-03T13:45:57.562Z,99673.92
2019-03-03T13:48:26.994Z,99678.81
2019-03-03T13:50:56.550Z,99677.05
2019-03-03T13:53:26.112Z,99670.86
2019-03-03T13:55:55.609Z,99667.80
2019-03-03T13:58:26.362Z,99673.09
2019-03-03T14:00:55.957Z,99663.38
2019-03-03T14:03:26.290Z,99661.15
2019-03-03T14:05:55.851Z,99658.54
2019-03-03T14:08:25.526Z,99660.33
2019-03-03T14:10:55.008Z,99655.93
2019-03-03T14:13:24.476Z,99655.48
2019-03-03T14:15:53.903Z,99656.37
2019-03-03T14:18:23.387Z,99647.49
2019-03-03T14:20:54.018Z,99647.03
2019-03-03T14:23:23.594Z,99636.83
2019-03-03T14:25:53.100Z,99631.98
2019-03-03T14:28:22.656Z,99627.98
2019-03-03T14:30:52.136Z,99625.30
2019-03-03T14:33:21.588Z,99627.06
2019-03-03T14:35:52.023Z,99622.66
2019-03-03T14:38:21.494Z,99626.64
2019-03-03T14:40:50.968Z,99623.57
2019-03-03T14:43:20.801Z,99619.14
2019-03-03T14:45:50.295Z,99612.50
2019-03-03T14:48:20.357Z,99615.19
2019-03-03T14:50:49.830Z,99613.83
2019-03-03T14:53:19.328Z,99606.77
2019-03-03T14:55:48.811Z,99600.60
2019-03-03T14:58:18.299Z,99607.24
2019-03-03T15:00:48.090Z,99599.77
2019-03-03T15:03:17.575Z,99600.63
2019-03-03T15:05:47.088Z,99589.59
2019-03-03T15:08:16.698Z,99594.84
2019-03-03T15:10:46.138Z,99593.52
2019-03-03T15:13:16.162Z,99585.56
2019-03-03T15:15:46.587Z,99582.89
2019-03-03T15:18:16.306Z,99580.20
2019-03-03T15:20:45.928Z,99585.95
2019-03-03T15:23:16.174Z,99580.66
2019-03-03T15:25:46.245Z,99586.41
2019-03-03T15:28:17.765Z,99581.56
2019-03-03T15:30:47.426Z,99580.24
2019-03-03T15:33:17.240Z,99578.97
2019-03-03T15:35:47.116Z,99578.98
2019-03-03T15:38:17.983Z,99576.38
2019-03-03T15:40:48.700Z,99568.90
2019-03-03T15:43:20.550Z,99574.63
2019-03-03T15:45:50.337Z,99569.36
2019-03-03T15:48:19.992Z,99578.22
2019-03-03T15:50:49.433Z,99568.49
2019-03-03T15:53:18.991Z,99576.47
2019-03-03T15:55:48.530Z,99570.29
2019-03-03T15:58:18.995Z,99568.98
2019-03-03T16:00:48.536Z,99561.94
2019-03-03T16:03:18.033Z,99558.84
2019-03-03T16:05:47.550Z,99565.92
2019-03-03T16:08:17.023Z,99563.75
2019-03-03T16:10:46.529Z,99569.49
2019-03-03T16:13:16.213Z,99551.83
2019-03-03T16:15:45.728Z,99553.61
2019-03-03T16:18:15.211Z,99547.88
2019-03-03T16:20:44.947Z,99550.48
2019-03-03T16:23:14.532Z,99546.98
2019-03-03T16:25:44.125Z,99539.05
2019-03-03T16:28:13.637Z,99539.05
2019-03-03T16:30:43.495Z,99537.72
2019-03-03T16:33:20.154Z,99528.47
2019-03-03T16:35:44.123Z,99533.33
2019-03-03T16:38:13.736Z,99525.84
2019-03-03T16:40:43.210Z,99526.72
2019-03-03T16:43:12.755Z,99523.19
2019-03-03T16:45:42.748Z,99520.53
2019-03-03T16:48:12.209Z,99529.81
2019-03-03T16:50:42.058Z,99517.89
2019-03-03T16:53:11.533Z,99511.73
2019-03-03T16:55:41.214Z,99517.01
2019-03-03T16:58:10.753Z,99518.80
2019-03-03T17:00:40.185Z,99509.95
2019-03-03T17:03:09.669Z,99509.05
2019-03-03T17:05:39.094Z,99507.72
2019-03-03T17:08:09.178Z,99505.08
2019-03-03T17:10:38.666Z,99505.08
2019-03-03T17:13:08.400Z,99504.20
2019-03-03T17:15:37.861Z,99494.94
2019-03-03T17:18:07.319Z,99494.05
2019-03-03T17:20:36.772Z,99490.53
2019-03-03T17:23:06.575Z,99482.63
2019-03-03T17:25:36.035Z,99491.00
2019-03-03T17:28:05.537Z,99485.69
2019-03-03T17:30:34.962Z,99480.38
2019-03-03T17:33:04.446Z,99497.14
2019-03-03T17:35:33.912Z,99487.83
2019-03-03T17:38:04.423Z,99486.02
2019-03-03T17:40:33.845Z,99477.20
2019-03-03T17:43:03.312Z,99471.91
2019-03-03T17:45:32.753Z,99479.40
2019-03-03T17:48:02.222Z,99474.48
2019-03-03T17:50:32.187Z,99477.13
2019-03-03T17:53:01.675Z,99470.52
2019-03-03T17:55:31.543Z,99466.50
2019-03-03T17:58:01.028Z,99469.62
2019-03-03T18:00:32.822Z,99469.19
2019-03-03T18:03:02.312Z,99473.16
2019-03-03T18:05:31.780Z,99470.51
2019-03-03T18:08:01.257Z,99466.09
2019-03-03T18:10:30.828Z,99466.95
2019-03-03T18:13:00.299Z,99459.01
2019-03-03T18:15:29.732Z,99466.52
2019-03-03T18:17:59.329Z,99461.64
2019-03-03T18:20:28.747Z,99459.91
2019-03-03T18:22:58.256Z,99454.59
2019-03-03T18:25:27.745Z,99452.36
2019-03-03T18:27:57.209Z,99446.22
2019-03-03T18:30:28.114Z,99438.69
2019-03-03T18:32:57.603Z,99433.00
2019-03-03T18:35:27.068Z,99422.38
2019-03-03T18:37:56.545Z,99424.58
2019-03-03T18:40:26.873Z,99425.88
2019-03-03T18:42:56.347Z,99424.58
2019-03-03T18:45:25.896Z,99410.92
2019-03-03T18:47:55.385Z,99408.69
2019-03-03T18:50:29.113Z,99407.81
2019-03-03T18:52:59.987Z,99404.73
2019-03-03T18:55:29.648Z,99406.97
2019-03-03T18:57:59.089Z,99403.44
2019-03-03T19:00:32.296Z,99393.71
2019-03-03T19:03:01.727Z,99398.55
2019-03-03T19:05:32.269Z,99393.23
2019-03-03T19:08:01.771Z,99383.08
2019-03-03T19:10:36.210Z,99383.94
2019-03-03T19:13:05.853Z,99379.55
2019-03-03T19:15:35.550Z,99376.43
2019-03-03T19:18:05.498Z,99379.53
2019-03-03T19:20:35.040Z,99375.97
2019-03-03T19:23:05.044Z,99374.66
2019-03-03T19:25:34.508Z,99374.22
2019-03-03T19:28:04.421Z,99371.11
2019-03-03T19:30:33.843Z,99378.19
2019-03-03T19:33:15.549Z,99374.66
2019-03-03T19:35:45.250Z,99368.89
2019-03-03T19:38:14.669Z,99369.79
2019-03-03T19:40:44.328Z,99359.20
2019-03-03T19:43:13.776Z,99360.09
2019-03-03T19:45:45.899Z,99350.83
2019-03-03T19:48:15.480Z,99360.09
2019-03-03T19:50:45.047Z,99342.88
2019-03-03T19:53:14.533Z,99337.58
2019-03-03T19:55:44.000Z,99324.77
2019-03-03T19:58:14.496Z,99317.30
2019-03-03T20:00:44.667Z,99313.31
2019-03-03T20:03:14.330Z,99307.19
2019-03-03T20:05:43.765Z,99307.64
2019-03-03T20:08:13.347Z,99306.73
2019-03-03T20:10:43.126Z,99302.83
2019-03-03T20:13:12.728Z,99300.67
2019-03-03T20:15:42.222Z,99299.71
2019-03-03T20:18:13.635Z,99298.40
2019-03-03T20:20:43.687Z,99290.53
2019-03-03T20:23:13.869Z,99287.44
2019-03-03T20:25:43.582Z,99290.55
2019-03-03T20:28:14.214Z,99278.62
2019-03-03T20:30:45.215Z,99285.70
2019-03-03T20:33:15.007Z,99276.01
2019-03-03T20:35:44.859Z,99280.00
2019-03-03T20:38:16.788Z,99268.98
2019-03-03T20:40:46.581Z,99274.30
2019-03-03T20:43:16.079Z,99262.81
2019-03-03T20:45:45.869Z,99264.19
2019-03-03T20:48:15.418Z,99254.02
2019-03-03T20:50:45.509Z,99253.13
2019-03-03T20:53:16.010Z,99245.23
2019-03-03T20:55:45.493Z,99247.44
2019-03-03T20:58:15.438Z,99249.25
2019-03-03T21:00:45.541Z,99232.50
2019-03-03T21:03:16.039Z,99232.94
2019-03-03T21:05:46.221Z,99225.00
2019-03-03T21:08:16.637Z,99226.77
2019-03-03T21:10:46.625Z,99215.30
2019-03-03T21:13:16.846Z,99220.16
2019-03-03T21:15:46.805Z,99207.75
2019-03-03T21:18:16.995Z,99193.66
2019-03-03T21:20:47.211Z,99202.02
2019-03-03T21:23:16.696Z,99204.59
2019-03-03T21:25:46.570Z,99200.64
2019-03-03T21:28:16.907Z,99201.14
2019-03-03T21:30:46.737Z,99203.77
2019-03-03T21:33:16.189Z,99198.88
2019-03-03T21:35:45.664Z,99200.72
2019-03-03T21:38:15.741Z,99195.83
2019-03-03T21:40:45.386Z,99200.27
2019-03-03T21:43:15.512Z,99184.34
2019-03-03T21:45:45.865Z,99188.73
2019-03-03T21:48:15.608Z,99190.06
2019-03-03T21:50:45.365Z,99191.84
2019-03-03T21:53:14.918Z,99180.84
2019-03-03T21:55:44.419Z,99172.02
2019-03-03T21:58:14.721Z,99160.52
2019-03-03T22:00:44.979Z,99160.08
2019-03-03T22:03:14.645Z,99157.02
2019-03-03T22:05:44.660Z,99156.98
2019-03-03T22:08:14.082Z,99141.94
2019-03-03T22:10:43.870Z,99156.97
2019-03-03T22:13:14.387Z,99147.23
2019-03-03T22:15:44.433Z,99141.92
2019-03-03T22:18:14.707Z,99131.77
2019-03-03T22:20:45.915Z,99131.83
2019-03-03T22:23:15.352Z,99134.00
2019-03-03T22:25:44.821Z,99124.24
2019-03-03T22:28:14.349Z,99131.75
2019-03-03T22:30:43.786Z,99136.58
2019-03-03T22:33:13.594Z,99140.50
2019-03-03T22:35:43.008Z,99139.56
2019-03-03T22:38:12.777Z,99134.22
2019-03-03T22:40:42.644Z,99128.84
2019-03-03T22:43:12.072Z,99121.78
2019-03-03T22:45:41.554Z,99110.25
2019-03-03T22:48:11.015Z,99110.27
2019-03-03T22:50:40.435Z,99104.94
2019-03-03T22:53:09.859Z,99097.91
2019-03-03T22:55:40.522Z,99103.50
2019-03-03T22:58:10.383Z,99104.39
2019-03-03T23:00:55.010Z,99084.47
2019-03-03T23:03:39.934Z,99098.53
2019-03-03T23:06:15.006Z,99086.67
2019-03-03T23:09:05.075Z,99086.67
2019-03-03T23:11:48.118Z,99090.12
2019-03-03T23:14:26.620Z,99084.79
2019-03-03T23:17:23.151Z,99075.52
2019-03-03T23:19:58.368Z,99075.98
2019-03-03T23:22:50.535Z,99068.13
2019-03-03T23:25:52.113Z,99072.52
2019-03-03T23:28:21.880Z,99064.19
2019-03-03T23:30:51.489Z,99042.08
2019-03-03T23:33:20.912Z,99044.31
2019-03-03T23:35:50.587Z,99037.81
2019-03-03T23:38:20.141Z,99031.25
2019-03-03T23:40:49.603Z,99020.72
2019-03-03T23:43:19.168Z,99011.06
2019-03-03T23:45:48.633Z,99019.95
2019-03-03T23:48:18.086Z,99020.03
2019-03-03T23:50:47.507Z,99007.27
2019-03-03T23:53:16.964Z,99006.91
2019-03-03T23:55:46.398Z,99002.97
2019-03-03T23:58:15.861Z,98998.59
